sensor_id;sensor_type;location;lat;lon;timestamp;P1;durP1;ratioP1;P2;durP2;ratioP2
146;SDS011;45999;48.808;9.182;2023-09-07T00:00:30;4.20;;;3.80;;
146;SDS011;45999;48.808;9.182;2023-09-07T00:02:56;6.40;;;4.10;;
146;SDS011;45999;48.808;9.182;2023-09-07T00:05:23;4.40;;;3.83;;
146;SDS011;45999;48.808;9.182;2023-09-07T00:07:49;5.07;;;3.97;;
146;SDS011;45999;48.808;9.182;2023-09-07T00:10:16;5.73;;;3.70;;
146;SDS011;45999;48.808;9.182;2023-09-07T00:12:43;4.70;;;3.40;;
146;SDS011;45999;48.808;9.182;2023-09-07T00:15:11;4.07;;;3.13;;
146;SDS011;45999;48.808;9.182;2023-09-07T00:17:37;3.83;;;3.37;;
146;SDS011;45999;48.808;9.182;2023-09-07T00:20:03;4.43;;;3.30;;
146;SDS011;45999;48.808;9.182;2023-09-07T00:22:35;4.17;;;3.63;;
146;SDS011;45999;48.808;9.182;2023-09-07T00:25:01;4.57;;;3.37;;
146;SDS011;45999;48.808;9.182;2023-09-07T00:27:28;4.03;;;3.73;;
146;SDS011;45999;48.808;9.182;2023-09-07T00:29:55;5.03;;;3.50;;
146;SDS011;45999;48.808;9.182;2023-09-07T00:32:22;4.20;;;3.70;;
146;SDS011;45999;48.808;9.182;2023-09-07T00:34:48;5.30;;;3.40;;
146;SDS011;45999;48.808;9.182;2023-09-07T00:37:14;5.60;;;3.23;;
146;SDS011;45999;48.808;9.182;2023-09-07T00:39:41;5.23;;;3.60;;
146;SDS011;45999;48.808;9.182;2023-09-07T00:42:07;5.00;;;3.47;;
146;SDS011;45999;48.808;9.182;2023-09-07T00:44:33;4.03;;;3.70;;
146;SDS011;45999;48.808;9.182;2023-09-07T00:47:00;4.03;;;3.60;;
146;SDS011;45999;48.808;9.182;2023-09-07T00:49:27;4.10;;;3.70;;
146;SDS011;45999;48.808;9.182;2023-09-07T00:51:54;3.83;;;3.53;;
146;SDS011;45999;48.808;9.182;2023-09-07T00:54:21;6.03;;;3.80;;
146;SDS011;45999;48.808;9.182;2023-09-07T00:56:47;4.27;;;3.70;;
146;SDS011;45999;48.808;9.182;2023-09-07T00:59:14;4.20;;;3.80;;
146;SDS011;45999;48.808;9.182;2023-09-07T01:01:40;3.97;;;3.53;;
146;SDS011;45999;48.808;9.182;2023-09-07T01:04:07;4.87;;;3.63;;
146;SDS011;45999;48.808;9.182;2023-09-07T01:09:13;5.03;;;3.73;;
146;SDS011;45999;48.808;9.182;2023-09-07T01:11:42;4.50;;;4.10;;
146;SDS011;45999;48.808;9.182;2023-09-07T01:14:09;4.30;;;3.90;;
146;SDS011;45999;48.808;9.182;2023-09-07T01:16:35;4.53;;;4.13;;
146;SDS011;45999;48.808;9.182;2023-09-07T01:19:03;5.20;;;4.23;;
146;SDS011;45999;48.808;9.182;2023-09-07T01:21:34;4.83;;;3.80;;
146;SDS011;45999;48.808;9.182;2023-09-07T01:24:01;7.57;;;3.93;;
146;SDS011;45999;48.808;9.182;2023-09-07T01:26:30;3.90;;;3.50;;
146;SDS011;45999;48.808;9.182;2023-09-07T01:28:57;4.43;;;4.00;;
146;SDS011;45999;48.808;9.182;2023-09-07T01:31:23;4.13;;;3.83;;
146;SDS011;45999;48.808;9.182;2023-09-07T01:33:50;4.47;;;4.07;;
146;SDS011;45999;48.808;9.182;2023-09-07T01:36:16;8.70;;;4.70;;
146;SDS011;45999;48.808;9.182;2023-09-07T01:38:42;5.00;;;4.43;;
146;SDS011;45999;48.808;9.182;2023-09-07T01:41:09;5.10;;;4.60;;
146;SDS011;45999;48.808;9.182;2023-09-07T01:43:35;5.87;;;4.63;;
146;SDS011;45999;48.808;9.182;2023-09-07T01:46:02;5.70;;;4.17;;
146;SDS011;45999;48.808;9.182;2023-09-07T01:48:28;6.97;;;4.50;;
146;SDS011;45999;48.808;9.182;2023-09-07T01:50:54;5.90;;;4.60;;
146;SDS011;45999;48.808;9.182;2023-09-07T01:53:20;6.77;;;4.60;;
146;SDS011;45999;48.808;9.182;2023-09-07T01:55:47;5.33;;;4.80;;
146;SDS011;45999;48.808;9.182;2023-09-07T01:58:13;6.60;;;4.40;;
146;SDS011;45999;48.808;9.182;2023-09-07T02:00:40;5.17;;;4.60;;
146;SDS011;45999;48.808;9.182;2023-09-07T02:03:06;5.37;;;4.87;;
146;SDS011;45999;48.808;9.182;2023-09-07T02:05:33;5.40;;;4.90;;
146;SDS011;45999;48.808;9.182;2023-09-07T02:07:59;5.63;;;4.37;;
146;SDS011;45999;48.808;9.182;2023-09-07T02:10:25;5.43;;;4.33;;
146;SDS011;45999;48.808;9.182;2023-09-07T02:12:52;6.47;;;4.97;;
146;SDS011;45999;48.808;9.182;2023-09-07T02:15:18;6.13;;;4.90;;
146;SDS011;45999;48.808;9.182;2023-09-07T02:17:44;5.77;;;4.93;;
146;SDS011;45999;48.808;9.182;2023-09-07T02:20:11;5.53;;;5.00;;
146;SDS011;45999;48.808;9.182;2023-09-07T02:22:38;5.13;;;4.60;;
146;SDS011;45999;48.808;9.182;2023-09-07T02:25:05;5.43;;;4.83;;
146;SDS011;45999;48.808;9.182;2023-09-07T02:27:33;6.17;;;4.50;;
146;SDS011;45999;48.808;9.182;2023-09-07T02:30:02;6.20;;;5.00;;
146;SDS011;45999;48.808;9.182;2023-09-07T02:32:29;6.53;;;5.10;;
146;SDS011;45999;48.808;9.182;2023-09-07T02:34:55;5.87;;;5.27;;
146;SDS011;45999;48.808;9.182;2023-09-07T02:37:22;5.97;;;4.67;;
146;SDS011;45999;48.808;9.182;2023-09-07T02:39:49;5.27;;;4.50;;
146;SDS011;45999;48.808;9.182;2023-09-07T02:42:15;6.17;;;5.20;;
146;SDS011;45999;48.808;9.182;2023-09-07T02:44:41;5.47;;;4.93;;
146;SDS011;45999;48.808;9.182;2023-09-07T02:47:08;5.40;;;4.73;;
146;SDS011;45999;48.808;9.182;2023-09-07T02:49:34;5.80;;;4.80;;
146;SDS011;45999;48.808;9.182;2023-09-07T02:52:01;6.17;;;5.17;;
146;SDS011;45999;48.808;9.182;2023-09-07T02:54:27;5.30;;;4.80;;
146;SDS011;45999;48.808;9.182;2023-09-07T02:56:54;7.13;;;5.00;;
146;SDS011;45999;48.808;9.182;2023-09-07T02:59:20;5.37;;;4.67;;
146;SDS011;45999;48.808;9.182;2023-09-07T03:01:47;6.00;;;5.20;;
146;SDS011;45999;48.808;9.182;2023-09-07T03:04:13;5.53;;;4.80;;
146;SDS011;45999;48.808;9.182;2023-09-07T03:06:39;5.77;;;5.17;;
146;SDS011;45999;48.808;9.182;2023-09-07T03:09:06;5.20;;;4.70;;
146;SDS011;45999;48.808;9.182;2023-09-07T03:11:34;6.30;;;5.03;;
146;SDS011;45999;48.808;9.182;2023-09-07T03:14:00;6.13;;;5.07;;
146;SDS011;45999;48.808;9.182;2023-09-07T03:16:27;5.23;;;4.70;;
146;SDS011;45999;48.808;9.182;2023-09-07T03:18:55;9.27;;;5.50;;
146;SDS011;45999;48.808;9.182;2023-09-07T03:21:21;5.47;;;4.93;;
146;SDS011;45999;48.808;9.182;2023-09-07T03:23:50;5.73;;;4.60;;
146;SDS011;45999;48.808;9.182;2023-09-07T03:26:18;8.23;;;4.70;;
146;SDS011;45999;48.808;9.182;2023-09-07T03:28:44;6.83;;;5.20;;
146;SDS011;45999;48.808;9.182;2023-09-07T03:31:11;7.23;;;5.93;;
146;SDS011;45999;48.808;9.182;2023-09-07T03:33:37;6.00;;;5.40;;
146;SDS011;45999;48.808;9.182;2023-09-07T03:36:03;6.07;;;5.53;;
146;SDS011;45999;48.808;9.182;2023-09-07T03:38:30;8.00;;;5.57;;
146;SDS011;45999;48.808;9.182;2023-09-07T03:40:56;7.73;;;5.80;;
146;SDS011;45999;48.808;9.182;2023-09-07T03:43:23;7.67;;;5.60;;
146;SDS011;45999;48.808;9.182;2023-09-07T03:45:49;8.43;;;5.73;;
146;SDS011;45999;48.808;9.182;2023-09-07T03:48:15;6.60;;;5.97;;
146;SDS011;45999;48.808;9.182;2023-09-07T03:50:42;7.37;;;5.70;;
146;SDS011;45999;48.808;9.182;2023-09-07T03:53:08;7.37;;;6.33;;
146;SDS011;45999;48.808;9.182;2023-09-07T03:55:41;10.27;;;6.13;;
146;SDS011;45999;48.808;9.182;2023-09-07T03:58:09;10.30;;;6.53;;
146;SDS011;45999;48.808;9.182;2023-09-07T04:00:39;6.83;;;5.93;;
146;SDS011;45999;48.808;9.182;2023-09-07T04:03:09;7.27;;;6.10;;
146;SDS011;45999;48.808;9.182;2023-09-07T04:05:38;7.37;;;5.50;;
146;SDS011;45999;48.808;9.182;2023-09-07T04:08:05;8.40;;;6.50;;
146;SDS011;45999;48.808;9.182;2023-09-07T04:10:32;6.87;;;6.20;;
146;SDS011;45999;48.808;9.182;2023-09-07T04:12:58;7.07;;;5.63;;
146;SDS011;45999;48.808;9.182;2023-09-07T04:15:25;7.93;;;5.87;;
146;SDS011;45999;48.808;9.182;2023-09-07T04:17:51;7.10;;;6.40;;
146;SDS011;45999;48.808;9.182;2023-09-07T04:20:20;7.83;;;5.40;;
146;SDS011;45999;48.808;9.182;2023-09-07T04:22:46;7.33;;;5.93;;
146;SDS011;45999;48.808;9.182;2023-09-07T04:25:12;8.40;;;6.43;;
146;SDS011;45999;48.808;9.182;2023-09-07T04:27:39;8.40;;;5.87;;
146;SDS011;45999;48.808;9.182;2023-09-07T04:30:05;9.20;;;6.67;;
146;SDS011;45999;48.808;9.182;2023-09-07T04:32:32;7.20;;;5.70;;
146;SDS011;45999;48.808;9.182;2023-09-07T04:34:59;6.60;;;6.00;;
146;SDS011;45999;48.808;9.182;2023-09-07T04:37:26;11.57;;;6.23;;
146;SDS011;45999;48.808;9.182;2023-09-07T04:39:53;6.50;;;5.77;;
146;SDS011;45999;48.808;9.182;2023-09-07T04:42:20;7.40;;;6.60;;
146;SDS011;45999;48.808;9.182;2023-09-07T04:44:47;9.33;;;6.50;;
146;SDS011;45999;48.808;9.182;2023-09-07T04:47:14;8.20;;;6.50;;
146;SDS011;45999;48.808;9.182;2023-09-07T04:49:40;9.83;;;6.77;;
146;SDS011;45999;48.808;9.182;2023-09-07T04:52:07;8.13;;;6.60;;
146;SDS011;45999;48.808;9.182;2023-09-07T04:54:34;9.47;;;6.50;;
146;SDS011;45999;48.808;9.182;2023-09-07T04:57:00;7.80;;;6.40;;
146;SDS011;45999;48.808;9.182;2023-09-07T04:59:27;10.50;;;6.33;;
146;SDS011;45999;48.808;9.182;2023-09-07T05:01:53;8.80;;;6.73;;
146;SDS011;45999;48.808;9.182;2023-09-07T05:04:20;9.27;;;6.17;;
146;SDS011;45999;48.808;9.182;2023-09-07T05:06:46;6.87;;;6.20;;
146;SDS011;45999;48.808;9.182;2023-09-07T05:09:12;9.40;;;6.40;;
146;SDS011;45999;48.808;9.182;2023-09-07T05:11:39;8.77;;;7.20;;
146;SDS011;45999;48.808;9.182;2023-09-07T05:14:05;9.77;;;6.93;;
146;SDS011;45999;48.808;9.182;2023-09-07T05:16:31;7.73;;;6.80;;
146;SDS011;45999;48.808;9.182;2023-09-07T05:18:58;10.87;;;6.57;;
146;SDS011;45999;48.808;9.182;2023-09-07T05:21:24;10.20;;;7.07;;
146;SDS011;45999;48.808;9.182;2023-09-07T05:23:50;7.57;;;6.87;;
146;SDS011;45999;48.808;9.182;2023-09-07T05:26:20;8.33;;;7.00;;
146;SDS011;45999;48.808;9.182;2023-09-07T05:28:49;7.53;;;6.70;;
146;SDS011;45999;48.808;9.182;2023-09-07T05:31:15;10.13;;;7.33;;
146;SDS011;45999;48.808;9.182;2023-09-07T05:33:42;7.77;;;6.50;;
146;SDS011;45999;48.808;9.182;2023-09-07T05:36:08;7.33;;;6.63;;
146;SDS011;45999;48.808;9.182;2023-09-07T05:38:34;7.97;;;6.57;;
146;SDS011;45999;48.808;9.182;2023-09-07T05:41:01;10.67;;;7.07;;
146;SDS011;45999;48.808;9.182;2023-09-07T05:43:28;11.93;;;7.13;;
146;SDS011;45999;48.808;9.182;2023-09-07T05:45:54;9.00;;;6.50;;
146;SDS011;45999;48.808;9.182;2023-09-07T05:48:21;7.03;;;6.23;;
146;SDS011;45999;48.808;9.182;2023-09-07T05:50:47;8.13;;;7.13;;
146;SDS011;45999;48.808;9.182;2023-09-07T05:53:14;9.70;;;6.40;;
146;SDS011;45999;48.808;9.182;2023-09-07T05:55:40;13.57;;;7.43;;
146;SDS011;45999;48.808;9.182;2023-09-07T05:58:07;7.63;;;6.93;;
146;SDS011;45999;48.808;9.182;2023-09-07T06:00:34;9.57;;;7.03;;
146;SDS011;45999;48.808;9.182;2023-09-07T06:03:04;11.67;;;6.83;;
146;SDS011;45999;48.808;9.182;2023-09-07T06:05:30;9.07;;;7.00;;
146;SDS011;45999;48.808;9.182;2023-09-07T06:07:57;8.43;;;7.53;;
146;SDS011;45999;48.808;9.182;2023-09-07T06:10:23;9.10;;;6.07;;
146;SDS011;45999;48.808;9.182;2023-09-07T06:12:50;9.37;;;7.10;;
146;SDS011;45999;48.808;9.182;2023-09-07T06:15:16;14.30;;;7.67;;
146;SDS011;45999;48.808;9.182;2023-09-07T06:17:42;9.40;;;7.03;;
146;SDS011;45999;48.808;9.182;2023-09-07T06:20:10;9.27;;;6.90;;
146;SDS011;45999;48.808;9.182;2023-09-07T06:22:37;10.60;;;7.50;;
146;SDS011;45999;48.808;9.182;2023-09-07T06:25:03;8.63;;;6.70;;
146;SDS011;45999;48.808;9.182;2023-09-07T06:27:30;12.63;;;6.80;;
146;SDS011;45999;48.808;9.182;2023-09-07T06:29:56;9.30;;;7.87;;
146;SDS011;45999;48.808;9.182;2023-09-07T06:32:22;10.30;;;7.00;;
146;SDS011;45999;48.808;9.182;2023-09-07T06:34:49;11.00;;;7.20;;
146;SDS011;45999;48.808;9.182;2023-09-07T06:37:15;13.87;;;8.40;;
146;SDS011;45999;48.808;9.182;2023-09-07T06:39:43;10.37;;;8.43;;
146;SDS011;45999;48.808;9.182;2023-09-07T06:42:10;8.80;;;7.40;;
146;SDS011;45999;48.808;9.182;2023-09-07T06:44:36;11.80;;;7.77;;
146;SDS011;45999;48.808;9.182;2023-09-07T06:47:02;14.43;;;7.27;;
146;SDS011;45999;48.808;9.182;2023-09-07T06:49:29;14.13;;;7.20;;
146;SDS011;45999;48.808;9.182;2023-09-07T06:51:56;12.53;;;8.53;;
146;SDS011;45999;48.808;9.182;2023-09-07T06:54:22;9.93;;;7.60;;
146;SDS011;45999;48.808;9.182;2023-09-07T06:56:49;8.47;;;7.33;;
146;SDS011;45999;48.808;9.182;2023-09-07T06:59:15;10.53;;;7.23;;
146;SDS011;45999;48.808;9.182;2023-09-07T07:01:41;8.70;;;7.73;;
146;SDS011;45999;48.808;9.182;2023-09-07T07:04:08;11.47;;;7.20;;
146;SDS011;45999;48.808;9.182;2023-09-07T07:06:34;8.50;;;6.93;;
146;SDS011;45999;48.808;9.182;2023-09-07T07:09:01;8.93;;;6.57;;
146;SDS011;45999;48.808;9.182;2023-09-07T07:11:27;12.07;;;7.20;;
146;SDS011;45999;48.808;9.182;2023-09-07T07:13:53;7.10;;;6.23;;
146;SDS011;45999;48.808;9.182;2023-09-07T07:16:20;9.23;;;6.90;;
146;SDS011;45999;48.808;9.182;2023-09-07T07:18:46;11.43;;;7.07;;
146;SDS011;45999;48.808;9.182;2023-09-07T07:21:12;7.50;;;6.63;;
146;SDS011;45999;48.808;9.182;2023-09-07T07:23:39;7.67;;;6.90;;
146;SDS011;45999;48.808;9.182;2023-09-07T07:26:05;8.93;;;6.43;;
146;SDS011;45999;48.808;9.182;2023-09-07T07:28:31;8.23;;;6.00;;
146;SDS011;45999;48.808;9.182;2023-09-07T07:30:58;8.00;;;6.30;;
146;SDS011;45999;48.808;9.182;2023-09-07T07:33:24;8.93;;;5.53;;
146;SDS011;45999;48.808;9.182;2023-09-07T07:35:51;7.90;;;5.83;;
146;SDS011;45999;48.808;9.182;2023-09-07T07:38:17;8.33;;;5.60;;
146;SDS011;45999;48.808;9.182;2023-09-07T07:40:44;6.30;;;5.67;;
146;SDS011;45999;48.808;9.182;2023-09-07T07:43:11;8.37;;;5.87;;
146;SDS011;45999;48.808;9.182;2023-09-07T07:45:38;6.30;;;5.70;;
146;SDS011;45999;48.808;9.182;2023-09-07T07:48:04;10.40;;;5.93;;
146;SDS011;45999;48.808;9.182;2023-09-07T07:50:35;6.83;;;6.03;;
146;SDS011;45999;48.808;9.182;2023-09-07T07:53:02;6.83;;;5.93;;
146;SDS011;45999;48.808;9.182;2023-09-07T07:55:29;9.17;;;5.67;;
146;SDS011;45999;48.808;9.182;2023-09-07T07:57:55;8.27;;;6.20;;
146;SDS011;45999;48.808;9.182;2023-09-07T08:00:22;6.47;;;5.57;;
146;SDS011;45999;48.808;9.182;2023-09-07T08:02:48;11.93;;;6.03;;
146;SDS011;45999;48.808;9.182;2023-09-07T08:05:14;6.53;;;5.73;;
146;SDS011;45999;48.808;9.182;2023-09-07T08:07:41;9.03;;;5.70;;
146;SDS011;45999;48.808;9.182;2023-09-07T08:10:07;7.27;;;5.23;;
146;SDS011;45999;48.808;9.182;2023-09-07T08:12:34;6.47;;;5.10;;
146;SDS011;45999;48.808;9.182;2023-09-07T08:15:00;6.67;;;5.57;;
146;SDS011;45999;48.808;9.182;2023-09-07T08:17:26;6.70;;;5.80;;
146;SDS011;45999;48.808;9.182;2023-09-07T08:19:53;8.43;;;5.70;;
146;SDS011;45999;48.808;9.182;2023-09-07T08:22:21;7.53;;;5.80;;
146;SDS011;45999;48.808;9.182;2023-09-07T08:24:48;7.90;;;5.67;;
146;SDS011;45999;48.808;9.182;2023-09-07T08:27:15;8.27;;;5.67;;
146;SDS011;45999;48.808;9.182;2023-09-07T08:29:44;6.60;;;5.23;;
146;SDS011;45999;48.808;9.182;2023-09-07T08:32:16;7.60;;;5.00;;
146;SDS011;45999;48.808;9.182;2023-09-07T08:34:42;5.83;;;4.90;;
146;SDS011;45999;48.808;9.182;2023-09-07T08:37:09;6.10;;;4.47;;
146;SDS011;45999;48.808;9.182;2023-09-07T08:39:35;7.63;;;4.93;;
146;SDS011;45999;48.808;9.182;2023-09-07T08:42:04;4.63;;;4.03;;
146;SDS011;45999;48.808;9.182;2023-09-07T08:44:32;5.70;;;5.07;;
146;SDS011;45999;48.808;9.182;2023-09-07T08:47:00;6.00;;;4.73;;
146;SDS011;45999;48.808;9.182;2023-09-07T08:49:28;7.37;;;5.10;;
146;SDS011;45999;48.808;9.182;2023-09-07T08:51:57;5.20;;;4.67;;
146;SDS011;45999;48.808;9.182;2023-09-07T08:54:25;6.27;;;4.90;;
146;SDS011;45999;48.808;9.182;2023-09-07T08:56:52;6.17;;;5.00;;
146;SDS011;45999;48.808;9.182;2023-09-07T08:59:19;6.87;;;5.33;;
146;SDS011;45999;48.808;9.182;2023-09-07T09:01:45;6.33;;;5.60;;
146;SDS011;45999;48.808;9.182;2023-09-07T09:04:11;6.23;;;5.17;;
146;SDS011;45999;48.808;9.182;2023-09-07T09:06:38;5.73;;;5.03;;
146;SDS011;45999;48.808;9.182;2023-09-07T09:09:05;6.87;;;5.63;;
146;SDS011;45999;48.808;9.182;2023-09-07T09:11:31;5.50;;;5.00;;
146;SDS011;45999;48.808;9.182;2023-09-07T09:13:58;7.87;;;5.57;;
146;SDS011;45999;48.808;9.182;2023-09-07T09:16:24;5.30;;;4.80;;
146;SDS011;45999;48.808;9.182;2023-09-07T09:18:52;6.30;;;5.20;;
146;SDS011;45999;48.808;9.182;2023-09-07T09:21:20;5.90;;;5.30;;
146;SDS011;45999;48.808;9.182;2023-09-07T09:23:47;6.00;;;5.40;;
146;SDS011;45999;48.808;9.182;2023-09-07T09:26:15;6.55;;;5.20;;
146;SDS011;45999;48.808;9.182;2023-09-07T09:28:42;6.88;;;5.72;;
146;SDS011;45999;48.808;9.182;2023-09-07T09:31:10;7.60;;;5.10;;
146;SDS011;45999;48.808;9.182;2023-09-07T09:33:37;8.23;;;5.22;;
146;SDS011;45999;48.808;9.182;2023-09-07T09:36:05;7.22;;;5.80;;
146;SDS011;45999;48.808;9.182;2023-09-07T09:38:33;6.22;;;5.18;;
146;SDS011;45999;48.808;9.182;2023-09-07T09:41:00;6.40;;;5.80;;
146;SDS011;45999;48.808;9.182;2023-09-07T09:43:28;5.50;;;5.00;;
146;SDS011;45999;48.808;9.182;2023-09-07T09:45:54;6.32;;;5.00;;
146;SDS011;45999;48.808;9.182;2023-09-07T09:48:21;7.50;;;5.00;;
146;SDS011;45999;48.808;9.182;2023-09-07T09:50:48;5.72;;;5.30;;
146;SDS011;45999;48.808;9.182;2023-09-07T09:53:16;7.15;;;5.30;;
146;SDS011;45999;48.808;9.182;2023-09-07T09:55:44;8.25;;;5.10;;
146;SDS011;45999;48.808;9.182;2023-09-07T09:58:15;9.18;;;5.57;;
146;SDS011;45999;48.808;9.182;2023-09-07T10:00:43;6.00;;;5.35;;
146;SDS011;45999;48.808;9.182;2023-09-07T10:03:24;7.90;;;5.57;;
146;SDS011;45999;48.808;9.182;2023-09-07T10:05:55;5.65;;;5.13;;
146;SDS011;45999;48.808;9.182;2023-09-07T10:08:21;5.97;;;5.25;;
146;SDS011;45999;48.808;9.182;2023-09-07T10:10:49;5.78;;;5.20;;
146;SDS011;45999;48.808;9.182;2023-09-07T10:13:29;6.63;;;5.80;;
146;SDS011;45999;48.808;9.182;2023-09-07T10:16:05;5.38;;;4.90;;
146;SDS011;45999;48.808;9.182;2023-09-07T10:18:34;6.40;;;5.10;;
146;SDS011;45999;48.808;9.182;2023-09-07T10:21:01;5.40;;;4.70;;
146;SDS011;45999;48.808;9.182;2023-09-07T10:23:35;7.88;;;5.35;;
146;SDS011;45999;48.808;9.182;2023-09-07T10:26:03;5.25;;;4.57;;
146;SDS011;45999;48.808;9.182;2023-09-07T10:28:30;5.50;;;5.00;;
146;SDS011;45999;48.808;9.182;2023-09-07T10:31:07;5.82;;;5.38;;
146;SDS011;45999;48.808;9.182;2023-09-07T10:33:39;5.72;;;5.22;;
146;SDS011;45999;48.808;9.182;2023-09-07T10:36:05;5.82;;;5.25;;
146;SDS011;45999;48.808;9.182;2023-09-07T10:38:32;6.90;;;5.00;;
146;SDS011;45999;48.808;9.182;2023-09-07T10:41:01;6.50;;;4.38;;
146;SDS011;45999;48.808;9.182;2023-09-07T10:43:29;5.70;;;5.10;;
146;SDS011;45999;48.808;9.182;2023-09-07T10:45:57;8.35;;;5.10;;
146;SDS011;45999;48.808;9.182;2023-09-07T10:48:25;6.18;;;4.60;;
146;SDS011;45999;48.808;9.182;2023-09-07T10:50:54;5.00;;;4.60;;
146;SDS011;45999;48.808;9.182;2023-09-07T10:53:28;6.85;;;5.13;;
146;SDS011;45999;48.808;9.182;2023-09-07T10:55:57;5.47;;;4.53;;
146;SDS011;45999;48.808;9.182;2023-09-07T10:58:30;5.85;;;4.82;;
146;SDS011;45999;48.808;9.182;2023-09-07T11:00:58;4.90;;;4.50;;
146;SDS011;45999;48.808;9.182;2023-09-07T11:03:25;5.32;;;4.90;;
146;SDS011;45999;48.808;9.182;2023-09-07T11:05:57;5.30;;;4.82;;
146;SDS011;45999;48.808;9.182;2023-09-07T11:08:24;6.28;;;5.10;;
146;SDS011;45999;48.808;9.182;2023-09-07T11:10:51;5.57;;;5.00;;
146;SDS011;45999;48.808;9.182;2023-09-07T11:13:17;5.90;;;4.78;;
146;SDS011;45999;48.808;9.182;2023-09-07T11:15:44;5.43;;;4.88;;
146;SDS011;45999;48.808;9.182;2023-09-07T11:18:10;5.43;;;4.47;;
146;SDS011;45999;48.808;9.182;2023-09-07T11:20:38;5.63;;;5.13;;
146;SDS011;45999;48.808;9.182;2023-09-07T11:23:05;5.07;;;4.45;;
146;SDS011;45999;48.808;9.182;2023-09-07T11:25:35;4.97;;;4.22;;
146;SDS011;45999;48.808;9.182;2023-09-07T11:28:03;5.00;;;4.63;;
146;SDS011;45999;48.808;9.182;2023-09-07T11:30:31;4.80;;;4.40;;
146;SDS011;45999;48.808;9.182;2023-09-07T11:33:04;5.43;;;4.82;;
146;SDS011;45999;48.808;9.182;2023-09-07T11:35:32;5.20;;;4.70;;
146;SDS011;45999;48.808;9.182;2023-09-07T11:38:03;4.68;;;4.35;;
146;SDS011;45999;48.808;9.182;2023-09-07T11:40:31;6.00;;;4.55;;
146;SDS011;45999;48.808;9.182;2023-09-07T11:42:58;5.28;;;4.38;;
146;SDS011;45999;48.808;9.182;2023-09-07T11:45:24;7.38;;;6.65;;
146;SDS011;45999;48.808;9.182;2023-09-07T11:47:51;4.80;;;4.40;;
146;SDS011;45999;48.808;9.182;2023-09-07T11:50:18;5.25;;;4.38;;
146;SDS011;45999;48.808;9.182;2023-09-07T11:52:45;7.28;;;4.05;;
146;SDS011;45999;48.808;9.182;2023-09-07T11:55:13;10.23;;;4.90;;
146;SDS011;45999;48.808;9.182;2023-09-07T11:57:40;4.65;;;4.25;;
146;SDS011;45999;48.808;9.182;2023-09-07T12:00:07;4.40;;;4.00;;
146;SDS011;45999;48.808;9.182;2023-09-07T12:02:36;4.82;;;4.38;;
146;SDS011;45999;48.808;9.182;2023-09-07T12:05:05;6.57;;;3.83;;
146;SDS011;45999;48.808;9.182;2023-09-07T12:07:33;4.97;;;4.05;;
146;SDS011;45999;48.808;9.182;2023-09-07T12:09:59;5.18;;;4.35;;
146;SDS011;45999;48.808;9.182;2023-09-07T12:12:26;4.47;;;4.07;;
146;SDS011;45999;48.808;9.182;2023-09-07T12:14:52;4.55;;;3.88;;
146;SDS011;45999;48.808;9.182;2023-09-07T12:17:21;4.15;;;3.75;;
146;SDS011;45999;48.808;9.182;2023-09-07T12:19:49;4.15;;;3.85;;
146;SDS011;45999;48.808;9.182;2023-09-07T12:22:16;5.38;;;3.60;;
146;SDS011;45999;48.808;9.182;2023-09-07T12:24:43;5.07;;;3.80;;
146;SDS011;45999;48.808;9.182;2023-09-07T12:27:09;6.65;;;3.78;;
146;SDS011;45999;48.808;9.182;2023-09-07T12:29:36;4.38;;;3.90;;
146;SDS011;45999;48.808;9.182;2023-09-07T12:32:02;3.83;;;3.53;;
146;SDS011;45999;48.808;9.182;2023-09-07T12:34:29;4.97;;;3.40;;
146;SDS011;45999;48.808;9.182;2023-09-07T12:36:55;4.10;;;3.80;;
146;SDS011;45999;48.808;9.182;2023-09-07T12:39:21;3.70;;;3.40;;
146;SDS011;45999;48.808;9.182;2023-09-07T12:41:48;3.92;;;3.47;;
146;SDS011;45999;48.808;9.182;2023-09-07T12:44:14;4.57;;;3.83;;
146;SDS011;45999;48.808;9.182;2023-09-07T12:46:41;4.00;;;3.35;;
146;SDS011;45999;48.808;9.182;2023-09-07T12:49:07;4.25;;;3.42;;
146;SDS011;45999;48.808;9.182;2023-09-07T12:51:34;4.38;;;3.75;;
146;SDS011;45999;48.808;9.182;2023-09-07T12:54:00;3.70;;;3.42;;
146;SDS011;45999;48.808;9.182;2023-09-07T12:56:27;6.28;;;3.33;;
146;SDS011;45999;48.808;9.182;2023-09-07T12:58:54;4.78;;;3.92;;
146;SDS011;45999;48.808;9.182;2023-09-07T13:01:22;4.13;;;3.72;;
146;SDS011;45999;48.808;9.182;2023-09-07T13:03:48;4.93;;;3.50;;
146;SDS011;45999;48.808;9.182;2023-09-07T13:06:15;3.60;;;3.30;;
146;SDS011;45999;48.808;9.182;2023-09-07T13:08:42;3.83;;;3.42;;
146;SDS011;45999;48.808;9.182;2023-09-07T13:11:09;4.97;;;3.90;;
146;SDS011;45999;48.808;9.182;2023-09-07T13:13:36;3.78;;;3.47;;
146;SDS011;45999;48.808;9.182;2023-09-07T13:16:03;3.95;;;3.47;;
146;SDS011;45999;48.808;9.182;2023-09-07T13:18:30;5.93;;;3.42;;
146;SDS011;45999;48.808;9.182;2023-09-07T13:20:56;3.60;;;3.30;;
146;SDS011;45999;48.808;9.182;2023-09-07T13:23:30;3.85;;;3.50;;
146;SDS011;45999;48.808;9.182;2023-09-07T13:25:57;4.63;;;3.67;;
146;SDS011;45999;48.808;9.182;2023-09-07T13:28:25;3.35;;;3.15;;
146;SDS011;45999;48.808;9.182;2023-09-07T13:30:51;3.95;;;3.55;;
146;SDS011;45999;48.808;9.182;2023-09-07T13:33:18;3.50;;;3.20;;
146;SDS011;45999;48.808;9.182;2023-09-07T13:35:45;4.03;;;3.63;;
146;SDS011;45999;48.808;9.182;2023-09-07T13:38:11;5.47;;;3.40;;
146;SDS011;45999;48.808;9.182;2023-09-07T13:40:38;3.72;;;3.30;;
146;SDS011;45999;48.808;9.182;2023-09-07T13:43:04;3.92;;;3.63;;
146;SDS011;45999;48.808;9.182;2023-09-07T13:45:31;4.20;;;3.80;;
146;SDS011;45999;48.808;9.182;2023-09-07T13:47:57;3.38;;;3.15;;
146;SDS011;45999;48.808;9.182;2023-09-07T13:50:24;4.47;;;3.53;;
146;SDS011;45999;48.808;9.182;2023-09-07T13:52:50;3.95;;;3.40;;
146;SDS011;45999;48.808;9.182;2023-09-07T13:55:16;3.75;;;3.45;;
146;SDS011;45999;48.808;9.182;2023-09-07T13:57:43;3.53;;;3.33;;
146;SDS011;45999;48.808;9.182;2023-09-07T14:00:09;4.40;;;3.50;;
146;SDS011;45999;48.808;9.182;2023-09-07T14:02:36;5.22;;;4.18;;
146;SDS011;45999;48.808;9.182;2023-09-07T14:05:02;8.27;;;4.07;;
146;SDS011;45999;48.808;9.182;2023-09-07T14:07:29;4.05;;;3.25;;
146;SDS011;45999;48.808;9.182;2023-09-07T14:09:55;4.60;;;3.70;;
146;SDS011;45999;48.808;9.182;2023-09-07T14:12:21;3.47;;;3.28;;
146;SDS011;45999;48.808;9.182;2023-09-07T14:14:48;3.78;;;3.47;;
146;SDS011;45999;48.808;9.182;2023-09-07T14:17:15;3.92;;;3.53;;
146;SDS011;45999;48.808;9.182;2023-09-07T14:19:42;3.85;;;3.50;;
146;SDS011;45999;48.808;9.182;2023-09-07T14:22:10;3.65;;;3.25;;
146;SDS011;45999;48.808;9.182;2023-09-07T14:24:37;4.10;;;3.70;;
146;SDS011;45999;48.808;9.182;2023-09-07T14:27:03;4.00;;;3.65;;
146;SDS011;45999;48.808;9.182;2023-09-07T14:29:30;3.88;;;3.22;;
146;SDS011;45999;48.808;9.182;2023-09-07T14:31:56;4.28;;;3.10;;
146;SDS011;45999;48.808;9.182;2023-09-07T14:34:23;4.25;;;3.63;;
146;SDS011;45999;48.808;9.182;2023-09-07T14:36:49;4.10;;;3.70;;
146;SDS011;45999;48.808;9.182;2023-09-07T14:39:15;6.90;;;3.67;;
146;SDS011;45999;48.808;9.182;2023-09-07T14:41:48;3.53;;;3.15;;
146;SDS011;45999;48.808;9.182;2023-09-07T14:44:14;4.00;;;3.50;;
146;SDS011;45999;48.808;9.182;2023-09-07T14:46:40;3.55;;;3.25;;
146;SDS011;45999;48.808;9.182;2023-09-07T14:49:07;3.78;;;3.47;;
146;SDS011;45999;48.808;9.182;2023-09-07T14:51:33;3.60;;;3.30;;
146;SDS011;45999;48.808;9.182;2023-09-07T14:53:59;3.40;;;3.20;;
146;SDS011;45999;48.808;9.182;2023-09-07T14:56:26;4.28;;;3.70;;
146;SDS011;45999;48.808;9.182;2023-09-07T14:58:54;4.05;;;3.65;;
146;SDS011;45999;48.808;9.182;2023-09-07T15:01:20;4.43;;;3.50;;
146;SDS011;45999;48.808;9.182;2023-09-07T15:03:46;4.30;;;3.42;;
146;SDS011;45999;48.808;9.182;2023-09-07T15:06:13;3.90;;;3.60;;
146;SDS011;45999;48.808;9.182;2023-09-07T15:08:42;4.82;;;4.03;;
146;SDS011;45999;48.808;9.182;2023-09-07T15:11:09;3.60;;;3.30;;
146;SDS011;45999;48.808;9.182;2023-09-07T15:13:37;3.45;;;3.15;;
146;SDS011;45999;48.808;9.182;2023-09-07T15:16:04;3.95;;;3.55;;